Time;durP1;ratioP1;P1;durP2;ratioP2;P2;SDS_P1;SDS_P2;PMS_P1;PMS_P2;Temp;Humidity;BMP_temperature;BMP_pressure;BME280_temperature;BME280_humidity;BME280_pressure;Samples;Min_cycle;Max_cycle;Signal;HPM_P1;HPM_P2
2024/02/06 00:00:25;;;;;;;8.60;5.03;;;11.10;56.30;;;;;;5046127;28;20430;-60
2024/02/06 00:02:51;;;;;;;11.40;5.97;;;11.00;56.10;;;;;;5045699;28;20280;-60
2024/02/06 00:05:17;;;;;;;11.40;6.70;;;10.90;56.20;;;;;;5046430;28;20563;-58
2024/02/06 00:07:42;;;;;;;10.67;6.60;;;11.00;56.40;;;;;;5045938;28;20316;-60
2024/02/06 00:10:08;;;;;;;10.40;6.40;;;11.00;56.30;;;;;;5049689;28;20185;-60
2024/02/06 00:12:34;;;;;;;9.00;5.83;;;11.00;56.20;;;;;;5047391;28;20671;-60
2024/02/06 00:14:59;;;;;;;8.50;7.40;;;11.10;56.30;;;;;;5047536;28;20264;-60
2024/02/06 00:17:25;;;;;;;9.07;6.00;;;11.00;56.40;;;;;;5041312;28;20219;-59
2024/02/06 00:19:50;;;;;;;8.97;6.60;;;11.00;56.50;;;;;;5039953;28;20645;-60
2024/02/06 00:22:16;;;;;;;9.43;6.77;;;11.00;56.70;;;;;;5049016;28;20169;-59
2024/02/06 00:24:41;;;;;;;8.90;6.23;;;11.00;56.80;;;;;;5043124;28;20186;-60
2024/02/06 00:27:08;;;;;;;9.20;6.60;;;10.90;57.10;;;;;;5048332;28;20303;-59
2024/02/06 00:29:33;;;;;;;12.10;7.40;;;11.00;57.60;;;;;;5049229;28;20195;-60
2024/02/06 00:31:59;;;;;;;7.80;6.73;;;11.00;58.40;;;;;;5047320;28;20415;-60
2024/02/06 00:34:24;;;;;;;7.87;6.30;;;11.10;59.00;;;;;;5042335;28;20184;-60
2024/02/06 00:36:50;;;;;;;8.20;6.20;;;11.10;59.00;;;;;;5048007;28;20250;-60
2024/02/06 00:39:16;;;;;;;8.47;6.70;;;11.20;59.30;;;;;;5044167;28;20181;-60
2024/02/06 00:41:43;;;;;;;11.87;5.90;;;11.30;59.30;;;;;;5047373;28;20358;-60
2024/02/06 00:44:08;;;;;;;9.07;7.13;;;11.30;59.30;;;;;;5048115;28;20188;-60
2024/02/06 00:46:34;;;;;;;9.00;6.90;;;11.40;59.30;;;;;;5047490;28;20939;-61
2024/02/06 00:48:59;;;;;;;9.80;6.90;;;11.30;59.50;;;;;;5039894;28;20315;-59
2024/02/06 00:51:25;;;;;;;8.03;6.10;;;11.30;59.50;;;;;;5042983;28;20200;-60
2024/02/06 00:53:50;;;;;;;9.30;7.03;;;11.40;59.40;;;;;;5047790;28;20439;-60
2024/02/06 00:56:16;;;;;;;7.70;6.80;;;11.40;59.50;;;;;;5048384;28;20507;-61
2024/02/06 00:58:42;;;;;;;12.83;7.70;;;11.50;59.40;;;;;;5045264;28;20242;-61
2024/02/06 01:01:07;;;;;;;8.07;6.67;;;11.50;59.40;;;;;;5047961;28;20557;-60
2024/02/06 01:03:33;;;;;;;11.13;6.40;;;11.60;59.40;;;;;;5048473;28;20450;-60
2024/02/06 01:05:58;;;;;;;13.67;7.40;;;11.60;59.20;;;;;;5048436;28;20205;-59
2024/02/06 01:08:24;;;;;;;11.70;6.30;;;11.60;59.20;;;;;;5043121;28;20184;-60
2024/02/06 01:10:49;;;;;;;7.30;6.60;;;11.60;59.30;;;;;;5048802;28;20191;-60
2024/02/06 01:13:15;;;;;;;9.30;7.60;;;11.60;59.40;;;;;;5047601;28;20181;-60
2024/02/06 01:15:40;;;;;;;8.53;6.20;;;11.60;59.40;;;;;;5047704;28;20216;-60
2024/02/06 01:18:06;;;;;;;8.10;6.17;;;11.70;59.30;;;;;;5047428;28;20185;-60
2024/02/06 01:20:32;;;;;;;11.63;6.70;;;11.70;59.10;;;;;;5048808;28;20246;-59
2024/02/06 01:22:58;;;;;;;10.37;6.30;;;11.70;59.00;;;;;;5047156;28;20188;-60
2024/02/06 01:25:24;;;;;;;8.87;6.50;;;11.70;59.00;;;;;;5047705;28;20559;-60
2024/02/06 01:27:49;;;;;;;11.20;6.30;;;11.70;59.20;;;;;;5047649;28;20558;-60
2024/02/06 01:30:15;;;;;;;8.00;6.30;;;11.70;59.20;;;;;;5049455;28;20341;-61
2024/02/06 01:32:40;;;;;;;9.63;7.37;;;11.60;59.20;;;;;;5039758;28;20181;-61
2024/02/06 01:35:06;;;;;;;10.50;5.80;;;11.70;59.20;;;;;;5048373;28;20243;-60
2024/02/06 01:37:32;;;;;;;8.73;5.93;;;11.70;59.00;;;;;;5047277;28;20200;-61
2024/02/06 01:39:58;;;;;;;9.43;6.30;;;11.70;58.90;;;;;;5047609;28;20811;-60
2024/02/06 01:42:23;;;;;;;6.67;5.73;;;11.70;58.90;;;;;;5044171;28;20205;-60
2024/02/06 01:44:49;;;;;;;7.90;6.57;;;11.80;58.90;;;;;;5046050;28;20180;-61
2024/02/06 01:47:15;;;;;;;9.13;6.10;;;11.80;58.70;;;;;;5046875;28;20217;-60
2024/02/06 01:49:41;;;;;;;8.87;6.53;;;11.80;58.60;;;;;;5044628;28;20185;-60
2024/02/06 01:52:08;;;;;;;9.63;6.20;;;11.80;58.60;;;;;;5042955;28;20272;-60
2024/02/06 01:54:34;;;;;;;8.80;5.87;;;11.80;58.50;;;;;;5043431;28;20469;-58
2024/02/06 01:57:00;;;;;;;7.30;6.43;;;11.90;58.50;;;;;;5037812;28;20917;-60
2024/02/06 01:59:26;;;;;;;10.90;6.50;;;11.80;58.50;;;;;;5043060;28;20423;-58
2024/02/06 02:01:52;;;;;;;7.87;6.00;;;11.90;58.50;;;;;;5041138;28;20449;-60
2024/02/06 02:04:18;;;;;;;7.50;6.50;;;11.90;58.40;;;;;;5042325;28;20242;-60
2024/02/06 02:06:45;;;;;;;9.97;6.40;;;11.90;58.30;;;;;;5044980;28;20890;-60
2024/02/06 02:09:11;;;;;;;6.03;5.43;;;11.90;58.20;;;;;;5045511;28;20957;-60
2024/02/06 02:11:37;;;;;;;9.60;6.00;;;11.80;58.10;;;;;;5045525;28;20423;-60
2024/02/06 02:14:03;;;;;;;8.60;6.30;;;11.80;58.10;;;;;;5043990;28;20426;-60
2024/02/06 02:16:29;;;;;;;10.23;5.50;;;11.60;58.50;;;;;;5046609;28;20435;-60
2024/02/06 02:18:58;;;;;;;7.27;5.70;;;11.70;58.50;;;;;;5052838;28;20663;-59
2024/02/06 02:21:24;;;;;;;7.93;6.13;;;11.60;58.80;;;;;;5050664;28;20188;-59
2024/02/06 02:23:50;;;;;;;10.27;5.50;;;11.70;58.70;;;;;;5051190;28;20484;-60
2024/02/06 02:26:15;;;;;;;9.37;6.33;;;11.70;58.40;;;;;;5046501;28;20313;-60
2024/02/06 02:28:42;;;;;;;8.60;6.00;;;11.80;58.50;;;;;;5045631;28;20607;-60
2024/02/06 02:31:09;;;;;;;10.10;6.83;;;11.70;58.20;;;;;;5041146;28;20226;-61
2024/02/06 02:33:36;;;;;;;14.50;5.70;;;11.80;58.10;;;;;;5043497;28;20437;-60
2024/02/06 02:36:05;;;;;;;8.33;6.17;;;11.80;58.00;;;;;;5045082;28;20447;-60
2024/02/06 02:38:32;;;;;;;13.80;6.20;;;11.80;58.00;;;;;;5045427;28;20444;-61
2024/02/06 02:40:58;;;;;;;12.53;6.43;;;11.50;58.40;;;;;;5045196;28;20429;-58
2024/02/06 02:43:24;;;;;;;12.47;6.50;;;11.40;58.90;;;;;;5050709;28;20407;-59
2024/02/06 02:45:49;;;;;;;9.87;6.33;;;11.40;59.00;;;;;;5051284;28;20570;-60
2024/02/06 02:48:15;;;;;;;9.70;5.70;;;11.40;59.10;;;;;;5050390;28;20659;-60
2024/02/06 02:50:41;;;;;;;15.33;6.57;;;11.40;59.00;;;;;;5046001;28;20689;-59
2024/02/06 02:53:06;;;;;;;11.40;6.57;;;11.40;58.80;;;;;;5050926;28;20181;-60
2024/02/06 02:55:33;;;;;;;9.10;5.73;;;11.50;58.60;;;;;;5047871;28;20200;-60
2024/02/06 02:57:59;;;;;;;9.10;6.67;;;11.40;58.90;;;;;;5049391;28;20192;-60
2024/02/06 03:00:25;;;;;;;10.47;6.00;;;11.30;58.90;;;;;;5048715;28;20423;-61
2024/02/06 03:02:50;;;;;;;8.20;5.53;;;11.40;58.80;;;;;;5049408;28;20495;-60
2024/02/06 03:05:17;;;;;;;11.57;6.87;;;11.40;58.80;;;;;;5048893;28;20444;-60
2024/02/06 03:07:43;;;;;;;7.67;6.00;;;11.50;58.70;;;;;;5046631;28;20239;-58
2024/02/06 03:10:09;;;;;;;11.03;6.60;;;11.60;58.40;;;;;;5044802;28;20833;-59
2024/02/06 03:12:34;;;;;;;10.90;6.60;;;11.60;58.30;;;;;;5044504;28;20223;-60
2024/02/06 03:15:01;;;;;;;9.93;6.30;;;11.50;58.20;;;;;;5040782;28;20217;-60
2024/02/06 03:17:27;;;;;;;10.00;6.20;;;11.50;58.20;;;;;;5037535;28;20700;-60
2024/02/06 03:19:52;;;;;;;8.43;6.43;;;11.50;59.00;;;;;;5046891;28;20462;-60
2024/02/06 03:22:20;;;;;;;13.43;6.40;;;11.60;58.20;;;;;;5044687;28;20435;-60
2024/02/06 03:24:45;;;;;;;7.63;6.00;;;11.40;58.30;;;;;;5039655;28;20189;-60
2024/02/06 03:27:11;;;;;;;8.00;5.87;;;11.20;58.70;;;;;;5046612;28;20506;-60
2024/02/06 03:29:37;;;;;;;9.10;6.70;;;11.00;59.00;;;;;;5048740;28;20212;-60
2024/02/06 03:32:03;;;;;;;10.90;5.97;;;10.90;59.30;;;;;;5048570;28;20191;-60
2024/02/06 03:34:29;;;;;;;12.17;6.23;;;11.00;59.30;;;;;;5046840;28;20272;-59
2024/02/06 03:36:55;;;;;;;9.93;5.90;;;11.10;59.20;;;;;;5046969;28;20529;-60
2024/02/06 03:39:21;;;;;;;10.43;7.10;;;11.10;58.90;;;;;;5047705;28;20227;-60
2024/02/06 03:41:47;;;;;;;11.83;7.57;;;11.20;58.80;;;;;;5048556;28;20184;-60
2024/02/06 03:44:14;;;;;;;8.13;5.80;;;11.10;58.70;;;;;;5050198;28;20431;-60
2024/02/06 03:46:40;;;;;;;9.63;6.10;;;11.20;58.80;;;;;;5043200;28;20289;-59
2024/02/06 03:49:07;;;;;;;11.23;6.43;;;11.20;58.50;;;;;;5048958;28;20419;-59
2024/02/06 03:51:33;;;;;;;8.73;6.30;;;11.20;58.50;;;;;;5049338;28;20414;-60
2024/02/06 03:53:58;;;;;;;8.87;5.93;;;11.20;58.30;;;;;;5042419;28;20423;-60
2024/02/06 03:56:24;;;;;;;7.13;5.70;;;11.10;58.50;;;;;;5045446;28;20786;-60
2024/02/06 03:58:50;;;;;;;11.30;6.27;;;11.20;58.40;;;;;;5049512;28;20195;-59
2024/02/06 04:01:16;;;;;;;9.40;6.10;;;11.20;58.30;;;;;;5047075;28;20279;-60
2024/02/06 04:03:42;;;;;;;11.33;7.20;;;11.10;58.40;;;;;;5047313;28;20201;-59
2024/02/06 04:06:11;;;;;;;8.87;5.87;;;11.10;58.40;;;;;;5043167;28;20439;-59
2024/02/06 04:08:36;;;;;;;11.80;7.00;;;11.10;59.00;;;;;;5049527;28;20503;-60
2024/02/06 04:11:02;;;;;;;9.80;7.00;;;11.00;58.40;;;;;;5048824;28;20510;-60
2024/02/06 04:13:28;;;;;;;12.40;6.70;;;11.10;58.30;;;;;;5049807;28;20184;-58
2024/02/06 04:15:53;;;;;;;8.93;6.10;;;11.10;58.20;;;;;;5045368;28;20208;-60
2024/02/06 04:18:19;;;;;;;9.10;5.97;;;11.20;58.20;;;;;;5050044;28;20234;-60
2024/02/06 04:20:44;;;;;;;11.03;6.30;;;11.30;57.90;;;;;;5043019;28;20188;-59
2024/02/06 04:23:10;;;;;;;9.10;7.17;;;11.30;57.70;;;;;;5041119;28;20272;-58
2024/02/06 04:25:35;;;;;;;8.50;6.23;;;11.30;57.60;;;;;;5046794;28;20200;-60
2024/02/06 04:28:01;;;;;;;16.17;6.63;;;11.40;57.40;;;;;;5039009;28;20213;-60
2024/02/06 04:30:26;;;;;;;9.97;6.80;;;11.40;57.30;;;;;;5045642;28;20188;-60
2024/02/06 04:32:53;;;;;;;7.67;5.77;;;11.40;57.30;;;;;;5036203;28;20189;-58
2024/02/06 04:35:18;;;;;;;11.60;6.50;;;11.40;57.30;;;;;;5041040;28;20197;-60
2024/02/06 04:37:44;;;;;;;10.10;7.47;;;11.30;57.20;;;;;;5047080;28;20957;-60
2024/02/06 04:40:10;;;;;;;11.93;6.80;;;11.30;57.30;;;;;;5049298;28;20753;-60
2024/02/06 04:42:36;;;;;;;10.20;6.30;;;11.30;57.20;;;;;;5040939;28;20193;-60
2024/02/06 04:45:02;;;;;;;8.83;6.30;;;11.30;57.10;;;;;;5047751;28;20450;-59
2024/02/06 04:47:28;;;;;;;9.13;6.90;;;11.20;57.30;;;;;;5046848;28;20770;-61
2024/02/06 04:49:58;;;;;;;8.67;6.67;;;11.00;58.00;;;;;;5040993;28;20514;-59
2024/02/06 04:52:24;;;;;;;11.07;6.60;;;10.90;57.90;;;;;;5047038;28;20560;-59
2024/02/06 04:54:50;;;;;;;7.30;5.17;;;10.90;57.90;;;;;;5042371;28;20439;-60
2024/02/06 04:57:15;;;;;;;10.50;6.30;;;10.80;58.00;;;;;;5041508;28;20204;-59
2024/02/06 04:59:41;;;;;;;6.10;5.00;;;10.70;58.30;;;;;;5048022;28;20954;-59
2024/02/06 05:02:08;;;;;;;7.30;6.07;;;10.70;58.30;;;;;;5039750;28;20200;-59
2024/02/06 05:04:33;;;;;;;13.90;7.73;;;10.70;58.30;;;;;;5048032;28;20192;-59
2024/02/06 05:06:59;;;;;;;8.97;5.90;;;10.70;58.30;;;;;;5040893;28;20475;-59
2024/02/06 05:09:25;;;;;;;12.33;6.23;;;10.70;58.30;;;;;;5045570;28;20461;-59
2024/02/06 05:11:51;;;;;;;9.20;6.20;;;10.80;58.00;;;;;;5042951;28;20264;-59
2024/02/06 05:14:16;;;;;;;12.47;6.73;;;10.90;58.20;;;;;;5045474;28;20720;-59
2024/02/06 05:16:42;;;;;;;11.17;6.70;;;11.00;57.90;;;;;;5044698;28;20913;-60
2024/02/06 05:19:13;;;;;;;12.13;7.27;;;11.00;57.60;;;;;;5049609;28;20184;-59
2024/02/06 05:21:41;;;;;;;13.50;6.63;;;11.00;57.40;;;;;;5048042;28;20192;-60
2024/02/06 05:24:08;;;;;;;8.37;6.23;;;10.70;58.20;;;;;;5044657;28;20431;-59
2024/02/06 05:26:33;;;;;;;8.30;6.53;;;10.70;58.40;;;;;;5046432;28;21022;-58
2024/02/06 05:28:59;;;;;;;16.03;7.93;;;10.70;58.60;;;;;;5047267;28;20497;-60
2024/02/06 05:31:25;;;;;;;9.73;6.90;;;10.60;58.70;;;;;;5048867;28;20220;-60
2024/02/06 05:33:50;;;;;;;9.43;6.80;;;10.50;58.70;;;;;;5034524;28;20193;-60
2024/02/06 05:36:16;;;;;;;9.57;6.40;;;10.60;58.90;;;;;;5047743;28;20213;-58
2024/02/06 05:38:41;;;;;;;9.83;6.33;;;10.50;58.80;;;;;;5046769;28;20192;-60
2024/02/06 05:41:12;;;;;;;7.50;5.67;;;10.40;59.10;;;;;;5042920;28;20655;-59
2024/02/06 05:43:37;;;;;;;10.63;6.50;;;10.50;59.10;;;;;;5047416;28;20189;-60
2024/02/06 05:46:04;;;;;;;5.60;5.10;;;10.50;59.00;;;;;;5040853;28;20455;-60
2024/02/06 05:48:29;;;;;;;6.70;5.73;;;10.60;59.00;;;;;;5047792;28;20276;-59
2024/02/06 05:50:55;;;;;;;9.00;4.90;;;10.60;58.70;;;;;;5046054;28;20499;-60
2024/02/06 05:53:20;;;;;;;5.97;5.33;;;10.70;58.70;;;;;;5048333;28;20433;-60
2024/02/06 05:55:46;;;;;;;6.80;4.10;;;10.80;58.40;;;;;;5038716;28;20233;-60
2024/02/06 05:58:12;;;;;;;6.73;4.33;;;10.90;58.10;;;;;;5046350;28;20679;-59
2024/02/06 06:00:37;;;;;;;5.93;4.33;;;10.80;57.80;;;;;;5046523;28;20185;-60
2024/02/06 06:03:04;;;;;;;7.40;5.00;;;10.90;57.90;;;;;;5034098;28;20279;-60
2024/02/06 06:05:30;;;;;;;11.33;4.23;;;10.70;57.90;;;;;;5043906;28;20191;-59
2024/02/06 06:07:55;;;;;;;9.37;5.40;;;10.50;58.30;;;;;;5037930;28;20467;-58
2024/02/06 06:10:21;;;;;;;8.87;5.90;;;10.50;58.40;;;;;;5042211;28;20177;-60
2024/02/06 06:12:47;;;;;;;6.97;6.03;;;10.60;58.50;;;;;;5044479;28;20621;-60
2024/02/06 06:15:14;;;;;;;11.90;6.57;;;10.70;58.40;;;;;;5043172;28;20188;-61
2024/02/06 06:17:40;;;;;;;11.67;5.20;;;10.80;58.40;;;;;;5046549;28;20273;-59
2024/02/06 06:20:06;;;;;;;10.50;6.40;;;10.90;58.60;;;;;;5047945;28;20427;-60
2024/02/06 06:22:31;;;;;;;9.50;6.30;;;11.00;58.60;;;;;;5047498;28;20565;-60
2024/02/06 06:24:57;;;;;;;9.50;7.03;;;11.10;58.50;;;;;;5046580;28;20404;-58
2024/02/06 06:27:22;;;;;;;9.03;6.37;;;11.20;58.00;;;;;;5035912;28;20227;-60
2024/02/06 06:29:48;;;;;;;7.20;5.90;;;11.10;57.90;;;;;;5042801;28;20241;-60
2024/02/06 06:32:14;;;;;;;8.73;7.83;;;11.20;57.90;;;;;;5033916;28;20657;-61
2024/02/06 06:34:41;;;;;;;8.20;7.37;;;11.20;57.70;;;;;;5037034;28;20189;-61
2024/02/06 06:37:06;;;;;;;7.90;6.87;;;11.30;57.50;;;;;;5038420;28;20252;-60
2024/02/06 06:39:32;;;;;;;7.60;6.80;;;11.30;57.30;;;;;;5047232;28;20458;-60
2024/02/06 06:41:58;;;;;;;6.77;5.70;;;11.30;57.50;;;;;;5038003;28;20189;-59
2024/02/06 06:44:23;;;;;;;9.60;5.23;;;11.50;57.00;;;;;;5039554;28;20485;-60
2024/02/06 06:46:50;;;;;;;11.27;6.73;;;11.50;56.70;;;;;;5038777;28;20404;-59
2024/02/06 06:49:16;;;;;;;9.00;5.90;;;11.70;56.50;;;;;;5046696;28;20563;-59
2024/02/06 06:51:43;;;;;;;8.20;7.20;;;11.80;56.40;;;;;;5039199;28;20481;-60
2024/02/06 06:54:08;;;;;;;8.23;5.70;;;11.90;56.00;;;;;;5046798;28;20850;-60
2024/02/06 06:56:34;;;;;;;8.10;6.90;;;12.00;55.60;;;;;;5041971;28;20447;-59
2024/02/06 06:58:59;;;;;;;9.73;6.27;;;12.00;55.40;;;;;;5049677;28;20223;-60
2024/02/06 07:01:25;;;;;;;7.20;5.90;;;12.10;55.10;;;;;;5044729;28;20231;-60
2024/02/06 07:03:51;;;;;;;8.03;5.27;;;12.20;54.90;;;;;;5047271;28;20197;-60
2024/02/06 07:06:17;;;;;;;7.93;5.63;;;12.30;54.90;;;;;;5044110;28;20667;-59
2024/02/06 07:08:43;;;;;;;6.77;4.90;;;12.10;54.30;;;;;;5047418;28;20181;-60
2024/02/06 07:11:09;;;;;;;5.00;4.30;;;12.10;54.70;;;;;;5041637;28;20438;-60
2024/02/06 07:13:35;;;;;;;7.97;4.80;;;11.90;54.60;;;;;;5040681;28;20439;-60
2024/02/06 07:16:01;;;;;;;8.50;5.13;;;11.70;54.60;;;;;;5039184;28;20291;-59
2024/02/06 07:18:26;;;;;;;6.70;5.30;;;11.60;55.00;;;;;;5043726;28;20189;-61
2024/02/06 07:20:52;;;;;;;9.00;5.80;;;11.70;55.00;;;;;;5047436;28;20419;-60
2024/02/06 07:23:18;;;;;;;10.13;5.53;;;11.80;55.20;;;;;;5048583;28;20267;-60
2024/02/06 07:25:43;;;;;;;9.43;4.93;;;11.60;54.80;;;;;;5041823;28;20655;-60
2024/02/06 07:28:09;;;;;;;5.43;4.80;;;11.60;55.20;;;;;;5041927;28;20215;-61
2024/02/06 07:30:34;;;;;;;5.77;4.80;;;11.30;55.20;;;;;;5046292;28;20678;-59
2024/02/06 07:33:00;;;;;;;7.67;4.40;;;10.90;56.00;;;;;;5047947;28;20644;-60
2024/02/06 07:35:26;;;;;;;5.60;4.70;;;11.00;56.20;;;;;;5044879;28;20246;-60
2024/02/06 07:37:51;;;;;;;7.73;4.90;;;10.90;56.30;;;;;;5042983;28;20606;-60
2024/02/06 07:40:17;;;;;;;9.40;5.07;;;11.00;56.00;;;;;;5039993;28;20600;-59
2024/02/06 07:42:44;;;;;;;6.57;4.53;;;10.90;56.10;;;;;;5049746;28;20188;-60
2024/02/06 07:45:10;;;;;;;5.63;4.80;;;11.00;55.80;;;;;;5050572;28;20513;-60
2024/02/06 07:47:35;;;;;;;7.80;4.60;;;11.20;55.60;;;;;;5049677;28;20524;-59
2024/02/06 07:50:05;;;;;;;8.57;5.70;;;11.20;55.60;;;;;;5050406;28;20185;-60
2024/02/06 07:52:30;;;;;;;6.17;4.93;;;11.10;55.70;;;;;;5049920;28;20181;-59
2024/02/06 07:54:56;;;;;;;6.77;5.20;;;11.30;55.50;;;;;;5049854;28;20532;-60
2024/02/06 07:57:21;;;;;;;8.37;5.20;;;11.40;55.20;;;;;;5049261;28;20201;-60
2024/02/06 07:59:47;;;;;;;7.53;4.70;;;11.50;54.90;;;;;;5050426;28;20713;-60
2024/02/06 08:02:12;;;;;;;7.33;4.93;;;11.40;54.90;;;;;;5050252;28;20204;-60
2024/02/06 08:04:38;;;;;;;5.77;4.90;;;11.50;55.20;;;;;;5047033;28;20557;-60
2024/02/06 08:07:04;;;;;;;10.00;3.73;;;11.50;54.80;;;;;;5049663;28;20574;-60
2024/02/06 08:09:29;;;;;;;13.10;6.03;;;11.50;55.00;;;;;;5050094;28;20188;-60
2024/02/06 08:11:56;;;;;;;6.47;5.10;;;11.30;54.90;;;;;;5049937;28;20189;-60
2024/02/06 08:14:21;;;;;;;6.17;4.37;;;11.20;55.10;;;;;;5045408;28;20310;-59
2024/02/06 08:16:47;;;;;;;6.60;4.57;;;11.20;55.20;;;;;;5048479;28;20518;-60
2024/02/06 08:19:13;;;;;;;6.20;4.60;;;11.20;55.30;;;;;;5050628;28;20211;-59
2024/02/06 08:21:39;;;;;;;7.83;4.83;;;11.30;55.40;;;;;;5049589;28;20193;-60
2024/02/06 08:24:05;;;;;;;6.30;4.80;;;11.30;55.10;;;;;;5050408;28;20462;-60
2024/02/06 08:26:31;;;;;;;6.57;4.97;;;11.40;55.30;;;;;;5049552;28;20470;-59
2024/02/06 08:28:57;;;;;;;8.20;5.20;;;11.40;55.30;;;;;;5050161;28;20469;-59
2024/02/06 08:31:22;;;;;;;5.90;4.40;;;11.40;55.10;;;;;;5046258;28;20272;-59
2024/02/06 08:33:50;;;;;;;7.23;4.53;;;11.50;55.10;;;;;;5049526;28;20264;-60
2024/02/06 08:36:17;;;;;;;8.10;4.27;;;11.70;54.90;;;;;;5049580;28;20201;-60
2024/02/06 08:38:42;;;;;;;7.27;4.87;;;11.70;54.70;;;;;;5048955;28;21263;-60
2024/02/06 08:41:08;;;;;;;5.00;4.27;;;11.80;54.50;;;;;;5048978;28;20473;-60
2024/02/06 08:43:34;;;;;;;7.20;5.10;;;11.90;54.30;;;;;;5048760;28;20187;-61
2024/02/06 08:46:00;;;;;;;5.00;3.90;;;12.00;54.30;;;;;;5048463;28;20201;-59
2024/02/06 08:48:28;;;;;;;6.73;4.70;;;11.90;54.40;;;;;;5044831;28;20620;-60
2024/02/06 08:50:57;;;;;;;4.70;3.50;;;11.90;54.50;;;;;;5049442;28;20538;-61
2024/02/06 08:53:23;;;;;;;5.53;4.10;;;11.80;54.80;;;;;;5047312;28;20423;-61
2024/02/06 08:55:49;;;;;;;7.43;4.20;;;11.60;55.10;;;;;;5049677;28;20724;-60
2024/02/06 08:58:14;;;;;;;7.10;4.43;;;11.50;55.50;;;;;;5048931;28;20665;-61
2024/02/06 09:00:40;;;;;;;8.00;5.17;;;11.30;55.70;;;;;;5049948;28;20234;-60
2024/02/06 09:03:06;;;;;;;6.87;4.23;;;11.20;56.20;;;;;;5047833;28;20223;-60
2024/02/06 09:05:33;;;;;;;7.53;4.67;;;11.20;56.50;;;;;;5046654;28;20451;-59
2024/02/06 09:07:59;;;;;;;6.37;4.60;;;11.30;56.30;;;;;;5047986;28;20251;-60
2024/02/06 09:10:25;;;;;;;7.73;5.30;;;11.40;56.20;;;;;;5046093;28;20478;-60
2024/02/06 09:12:51;;;;;;;9.47;5.00;;;11.40;56.20;;;;;;5035504;28;20476;-61
2024/02/06 09:15:17;;;;;;;6.43;4.33;;;11.50;55.90;;;;;;5042929;28;20648;-59
2024/02/06 09:17:43;;;;;;;6.83;4.80;;;11.60;55.70;;;;;;5037754;28;20653;-60
2024/02/06 09:20:12;;;;;;;6.23;3.70;;;11.40;56.10;;;;;;5046993;28;20501;-60
2024/02/06 09:22:38;;;;;;;8.53;4.20;;;11.20;56.40;;;;;;5046784;28;20434;-60
2024/02/06 09:25:05;;;;;;;8.60;4.70;;;11.20;56.50;;;;;;5039841;28;20506;-59
2024/02/06 09:27:31;;;;;;;7.20;4.50;;;11.20;56.50;;;;;;5042022;28;20479;-60
2024/02/06 09:29:58;;;;;;;10.87;5.23;;;11.20;56.90;;;;;;5037312;28;20793;-61
2024/02/06 09:32:24;;;;;;;7.00;5.00;;;11.40;56.60;;;;;;5039470;28;20446;-61
2024/02/06 09:34:51;;;;;;;5.43;4.40;;;11.40;56.60;;;;;;5047249;28;20438;-61
2024/02/06 09:37:16;;;;;;;8.80;3.80;;;11.40;56.70;;;;;;5045273;28;20462;-60
2024/02/06 09:39:42;;;;;;;5.73;4.67;;;11.40;56.50;;;;;;5034651;28;20444;-60
2024/02/06 09:42:08;;;;;;;8.67;4.60;;;11.30;56.70;;;;;;5039026;28;20276;-61
2024/02/06 09:44:34;;;;;;;6.03;4.03;;;11.10;57.40;;;;;;5033041;28;20600;-61
2024/02/06 09:47:00;;;;;;;5.17;3.73;;;11.20;57.20;;;;;;5037586;28;20235;-61
2024/02/06 09:49:26;;;;;;;6.77;3.93;;;11.20;57.20;;;;;;5041602;28;20524;-60
2024/02/06 09:51:52;;;;;;;6.10;4.20;;;11.40;57.30;;;;;;5040985;28;20441;-61
2024/02/06 09:54:23;;;;;;;6.13;4.27;;;11.20;57.20;;;;;;5048296;28;20427;-61
2024/02/06 09:56:49;;;;;;;10.30;4.53;;;11.30;57.60;;;;;;5041987;28;20547;-59
2024/02/06 09:59:17;;;;;;;8.20;4.10;;;11.20;57.60;;;;;;5047002;28;20419;-61
2024/02/06 10:01:44;;;;;;;5.90;4.33;;;11.20;57.80;;;;;;5042242;28;21044;-60
2024/02/06 10:04:15;;;;;;;5.90;3.87;;;11.30;57.90;;;;;;5047599;28;20769;-61
2024/02/06 10:06:40;;;;;;;5.67;3.67;;;11.40;57.50;;;;;;5039644;28;20483;-61
2024/02/06 10:09:07;;;;;;;7.23;4.60;;;11.40;57.70;;;;;;5042097;28;20441;-60
2024/02/06 10:11:34;;;;;;;5.70;3.67;;;11.40;57.60;;;;;;5042106;28;20311;-59
2024/02/06 10:14:00;;;;;;;5.17;4.13;;;11.30;57.80;;;;;;5045863;28;20443;-60
2024/02/06 10:16:26;;;;;;;6.03;4.00;;;11.50;57.80;;;;;;5045171;28;20465;-60
2024/02/06 10:18:52;;;;;;;5.03;3.87;;;11.50;57.60;;;;;;5042629;28;20439;-61
2024/02/06 10:21:18;;;;;;;5.00;3.23;;;11.60;57.80;;;;;;5048609;28;20219;-59
2024/02/06 10:23:43;;;;;;;5.03;3.33;;;11.70;57.60;;;;;;5047397;28;20422;-62
2024/02/06 10:26:09;;;;;;;4.00;3.07;;;11.70;57.20;;;;;;5047743;28;20443;-61
2024/02/06 10:28:36;;;;;;;6.53;3.30;;;11.60;57.20;;;;;;5042149;28;20224;-61
2024/02/06 10:31:10;;;;;;;7.40;3.87;;;11.50;57.50;;;;;;5042702;28;20224;-61
2024/02/06 10:33:35;;;;;;;8.67;3.60;;;11.70;57.40;;;;;;5033986;28;20479;-60
2024/02/06 10:36:01;;;;;;;4.07;2.77;;;11.70;57.20;;;;;;5039160;28;21066;-60
2024/02/06 10:38:27;;;;;;;5.20;3.60;;;11.70;57.20;;;;;;5044742;28;20279;-58
2024/02/06 10:40:53;;;;;;;3.97;3.37;;;11.70;57.30;;;;;;5047487;28;20423;-60
2024/02/06 10:43:19;;;;;;;4.10;3.50;;;11.80;57.30;;;;;;5045881;28;20196;-61
2024/02/06 10:45:44;;;;;;;5.03;3.03;;;12.00;56.80;;;;;;5046082;28;20556;-58
2024/02/06 10:48:11;;;;;;;3.40;2.70;;;12.00;56.50;;;;;;5046031;28;20216;-61
2024/02/06 10:50:36;;;;;;;3.63;2.90;;;12.10;56.40;;;;;;5044935;28;20181;-58
2024/02/06 10:53:06;;;;;;;5.20;3.73;;;12.20;56.50;;;;;;5042024;28;20430;-61
2024/02/06 10:55:31;;;;;;;3.30;2.50;;;12.20;56.60;;;;;;5049211;28;20181;-61
2024/02/06 10:58:08;;;;;;;3.17;2.03;;;12.20;56.20;;;;;;5047335;28;20809;-61
2024/02/06 11:00:34;;;;;;;2.87;2.57;;;12.30;56.00;;;;;;5041193;28;20188;-59
2024/02/06 11:03:07;;;;;;;4.57;3.03;;;12.30;56.00;;;;;;5044950;28;20451;-59
2024/02/06 11:05:37;;;;;;;3.30;2.40;;;12.10;56.00;;;;;;5046968;28;20418;-62
2024/02/06 11:08:09;;;;;;;6.07;2.80;;;12.30;56.30;;;;;;5044046;28;21200;-61
2024/02/06 11:10:43;;;;;;;2.20;2.00;;;12.30;56.00;;;;;;5049579;28;20482;-60
2024/02/06 11:13:19;;;;;;;2.47;2.20;;;12.50;56.00;;;;;;5040041;28;20411;-61
2024/02/06 11:15:46;;;;;;;2.77;1.80;;;12.50;55.60;;;;;;5049515;28;20446;-62
2024/02/06 11:18:13;;;;;;;3.10;2.90;;;12.70;55.30;;;;;;5049376;28;20867;-60
2024/02/06 11:20:41;;;;;;;2.70;2.10;;;12.70;55.40;;;;;;5049880;28;20481;-61
2024/02/06 11:23:07;;;;;;;2.50;2.23;;;12.90;55.00;;;;;;5041453;28;20423;-61
2024/02/06 11:25:35;;;;;;;3.07;1.67;;;13.00;54.60;;;;;;5048314;28;20784;-60
2024/02/06 11:28:03;;;;;;;3.50;2.67;;;12.70;54.50;;;;;;5050285;28;20477;-61
2024/02/06 11:30:31;;;;;;;7.67;2.37;;;12.50;55.40;;;;;;5047584;28;20514;-61
2024/02/06 11:33:04;;;;;;;3.83;1.77;;;12.70;55.40;;;;;;5043779;28;21508;-60
2024/02/06 11:35:31;;;;;;;5.10;2.63;;;12.90;54.90;;;;;;5045047;28;20447;-59
2024/02/06 11:37:57;;;;;;;2.37;2.00;;;12.80;54.90;;;;;;5040807;28;20431;-60
2024/02/06 11:40:28;;;;;;;2.67;1.80;;;12.80;54.80;;;;;;5050956;28;20478;-59
2024/02/06 11:43:04;;;;;;;2.53;1.83;;;12.70;55.20;;;;;;5034636;28;20276;-59
2024/02/06 11:45:31;;;;;;;3.03;2.27;;;12.90;55.00;;;;;;5047135;28;20426;-59
2024/02/06 11:47:58;;;;;;;3.17;2.00;;;13.00;54.80;;;;;;5047674;28;20488;-61
2024/02/06 11:50:35;;;;;;;2.60;1.93;;;13.00;54.70;;;;;;5048042;28;20516;-60
2024/02/06 11:53:03;;;;;;;2.93;1.67;;;13.10;54.40;;;;;;5040879;28;20456;-61
2024/02/06 11:55:28;;;;;;;2.43;1.60;;;13.10;54.30;;;;;;5042642;28;20450;-60
2024/02/06 11:57:56;;;;;;;4.87;2.67;;;13.10;54.60;;;;;;5046707;28;20416;-59
2024/02/06 12:00:22;;;;;;;3.03;1.73;;;13.10;54.60;;;;;;5042139;28;20188;-61
2024/02/06 12:02:55;;;;;;;3.67;2.80;;;13.00;54.70;;;;;;5042575;28;20516;-59
2024/02/06 12:05:22;;;;;;;4.10;1.70;;;13.30;54.40;;;;;;5043275;28;20423;-61
2024/02/06 12:07:58;;;;;;;2.50;1.93;;;13.20;54.10;;;;;;5044004;28;21503;-60
2024/02/06 12:10:25;;;;;;;3.80;2.27;;;13.40;54.20;;;;;;5045612;28;20429;-61
2024/02/06 12:12:53;;;;;;;3.43;2.00;;;13.30;54.00;;;;;;5048762;28;21168;-61
2024/02/06 12:15:19;;;;;;;3.00;2.10;;;13.30;54.30;;;;;;5050439;28;20419;-59
2024/02/06 12:17:47;;;;;;;2.27;2.03;;;13.50;54.00;;;;;;5043563;28;20836;-60
2024/02/06 12:20:12;;;;;;;8.73;2.23;;;13.60;53.70;;;;;;5049675;28;20423;-59
2024/02/06 12:22:38;;;;;;;4.40;2.83;;;13.70;53.60;;;;;;5041398;28;21022;-60
2024/02/06 12:25:04;;;;;;;4.40;2.13;;;13.90;53.40;;;;;;5040044;28;20249;-61
2024/02/06 12:27:30;;;;;;;5.57;2.33;;;13.90;53.00;;;;;;5044248;28;20224;-60
2024/02/06 12:29:56;;;;;;;3.20;2.07;;;14.10;53.00;;;;;;5044061;28;20860;-60
2024/02/06 12:32:21;;;;;;;4.83;1.80;;;14.10;52.80;;;;;;5046669;28;20181;-60
2024/02/06 12:34:47;;;;;;;2.40;1.60;;;14.20;52.80;;;;;;5043992;28;20284;-61
2024/02/06 12:37:13;;;;;;;2.90;2.17;;;14.30;52.60;;;;;;5041171;28;20713;-60
2024/02/06 12:39:38;;;;;;;2.20;1.63;;;14.10;52.70;;;;;;5044447;28;20552;-59